Time;durP1;ratioP1;P1;durP2;ratioP2;P2;SDS_P1;SDS_P2;PMS_P1;PMS_P2;Temp;Humidity;BMP_temperature;BMP_pressure;BME280_temperature;BME280_humidity;BME280_pressure;Samples;Min_cycle;Max_cycle;Signal;HPM_P1;HPM_P2
2023/06/12 05:02:43;;;;;;;;;;;;;;;18.08;59.96;98175.78;7321532;19;20241;-74
2023/06/12 05:05:10;;;;;;;;;;;;;;;18.26;58.77;98178.63;7353670;19;19919;-72
2023/06/12 05:07:37;;;;;;;;;;;;;;;18.30;59.94;98179.88;7361159;19;20264;-72
2023/06/12 05:10:04;;;;;;;;;;;;;;;18.37;59.36;98185.19;7365426;19;19925;-73
2023/06/12 05:12:31;;;;;;;;;;;;;;;18.45;59.15;98184.16;7372841;19;20010;-73
2023/06/12 05:14:59;;;;;;;;;;;;;;;18.61;57.83;98175.63;7366117;19;19927;-72
2023/06/12 05:17:27;;;;;;;;;;;;;;;18.57;58.79;98185.16;7367101;19;19918;-72
2023/06/12 05:20:01;;;;;;;;;;;;;;;18.60;58.80;98179.38;7367349;19;19923;-71
2023/06/12 05:22:27;;;;;;;;;;;;;;;18.71;58.86;98175.19;7369558;19;19929;-73
2023/06/12 05:24:54;;;;;;;;;;;;;;;18.69;59.33;98188.78;7369426;19;19923;-74
2023/06/12 05:27:21;;;;;;;;;;;;;;;18.91;60.25;98181.31;7361150;19;19921;-72
2023/06/12 05:29:49;;;;;;;;;;;;;;;19.06;58.13;98186.38;7370450;19;19919;-73
2023/06/12 05:32:15;;;;;;;;;;;;;;;19.10;58.66;98186.81;7370686;19;19933;-73
2023/06/12 05:34:42;;;;;;;;;;;;;;;19.19;57.62;98189.00;7370986;19;20583;-73
2023/06/12 05:37:09;;;;;;;;;;;;;;;19.35;57.79;98187.66;7367989;19;19918;-73
2023/06/12 05:39:36;;;;;;;;;;;;;;;19.42;57.15;98190.31;7370769;19;20510;-73
2023/06/12 05:42:04;;;;;;;;;;;;;;;19.55;55.90;98182.16;7367228;19;19956;-73
2023/06/12 05:44:31;;;;;;;;;;;;;;;19.64;57.13;98180.84;7372303;19;20810;-73
2023/06/12 05:47:00;;;;;;;;;;;;;;;19.79;62.01;98179.72;7372763;19;19922;-71
2023/06/12 05:49:26;;;;;;;;;;;;;;;19.93;54.68;98184.78;7373813;19;19919;-73
2023/06/12 05:51:53;;;;;;;;;;;;;;;20.13;54.57;98186.44;7375113;19;19922;-72
2023/06/12 05:54:20;;;;;;;;;;;;;;;20.14;55.14;98188.91;7379499;19;20272;-74
2023/06/12 05:56:47;;;;;;;;;;;;;;;20.25;57.58;98175.75;7377607;19;19926;-70
2023/06/12 05:59:14;;;;;;;;;;;;;;;20.46;54.96;98186.09;7374113;19;20313;-71
2023/06/12 06:01:41;;;;;;;;;;;;;;;20.48;56.95;98175.94;7370236;19;19925;-72
2023/06/12 06:04:11;;;;;;;;;;;;;;;20.58;57.30;98175.44;7375624;19;19915;-74
2023/06/12 06:06:38;;;;;;;;;;;;;;;20.81;54.43;98180.13;7378396;19;19935;-73
2023/06/12 06:09:08;;;;;;;;;;;;;;;20.94;54.93;98177.25;7374785;19;19998;-71
2023/06/12 06:11:35;;;;;;;;;;;;;;;21.03;55.00;98180.44;7376749;19;19919;-70
2023/06/12 06:14:03;;;;;;;;;;;;;;;21.27;52.23;98184.03;7375199;19;19974;-71
2023/06/12 06:16:31;;;;;;;;;;;;;;;21.35;52.73;98185.59;7375146;19;19934;-74
2023/06/12 06:19:18;;;;;;;;;;;;;;;21.45;51.90;98185.88;7374187;19;19915;-74
2023/06/12 06:21:46;;;;;;;;;;;;;;;21.75;54.59;98185.84;7375516;19;19927;-73
2023/06/12 06:24:13;;;;;;;;;;;;;;;;;;7374748;19;19923;-72
2023/06/12 06:26:40;;;;;;;;;;;;;;;22.47;53.87;98179.41;7375950;19;19911;-75
2023/06/12 06:29:08;;;;;;;;;;;;;;;22.97;50.09;98178.81;7373411;19;19974;-74
2023/06/12 06:31:40;;;;;;;;;;;;;;;23.13;51.15;98179.94;7374015;19;19926;-73
2023/06/12 06:34:06;;;;;;;;;;;;;;;23.26;52.50;98171.53;7374934;19;19934;-70
2023/06/12 06:36:35;;;;;;;;;;;;;;;23.39;51.14;98183.91;7377320;19;19947;-73
2023/06/12 06:39:03;;;;;;;;;;;;;;;23.39;51.07;98187.41;7370529;19;19918;-73
2023/06/12 06:41:30;;;;;;;;;;;;;;;23.34;49.74;98187.31;7375252;19;19931;-71
2023/06/12 06:43:58;;;;;;;;;;;;;;;23.22;52.12;98183.84;7373022;19;19931;-72
2023/06/12 06:46:25;;;;;;;;;;;;;;;23.32;48.82;98191.34;7374995;19;20376;-73
2023/06/12 06:48:55;;;;;;;;;;;;;;;23.26;50.43;98198.53;7375410;19;19919;-72
2023/06/12 06:51:22;;;;;;;;;;;;;;;23.27;49.65;98191.22;7374742;19;19923;-71
2023/06/12 06:53:49;;;;;;;;;;;;;;;23.33;48.60;98193.78;7373392;19;19921;-72
2023/06/12 06:56:17;;;;;;;;;;;;;;;23.50;45.96;98195.69;7370644;19;19925;-70
2023/06/12 06:58:44;;;;;;;;;;;;;;;23.44;49.60;98192.09;7370315;19;19990;-71
2023/06/12 07:01:12;;;;;;;;;;;;;;;23.34;48.27;98186.50;7371970;19;20632;-72
2023/06/12 07:03:39;;;;;;;;;;;;;;;23.18;49.00;98191.63;7376855;19;19919;-70
2023/06/12 07:06:07;;;;;;;;;;;;;;;23.50;49.64;98182.19;7372828;19;20248;-71
2023/06/12 07:08:35;;;;;;;;;;;;;;;23.58;47.18;98187.19;7377353;19;19927;-72
2023/06/12 07:11:02;;;;;;;;;;;;;;;23.56;48.13;98179.31;7370521;19;20312;-71
2023/06/12 07:13:28;;;;;;;;;;;;;;;23.78;47.35;98186.75;7374863;19;19927;-73
2023/06/12 07:15:55;;;;;;;;;;;;;;;23.71;48.63;98184.16;7372751;19;20418;-73
2023/06/12 07:18:25;;;;;;;;;;;;;;;23.69;44.50;98182.78;7371499;19;20293;-72
2023/06/12 07:20:53;;;;;;;;;;;;;;;23.86;47.25;98170.94;7370532;19;20328;-70
2023/06/12 07:23:19;;;;;;;;;;;;;;;23.89;48.25;98177.75;7369132;19;19919;-70
2023/06/12 07:25:46;;;;;;;;;;;;;;;24.07;45.62;98182.88;7374094;19;19923;-72
2023/06/12 07:28:13;;;;;;;;;;;;;;;24.26;43.78;98172.59;7374972;19;19926;-73
2023/06/12 07:30:39;;;;;;;;;;;;;;;23.99;43.60;98171.69;7375398;19;20025;-69
2023/06/12 07:33:06;;;;;;;;;;;;;;;24.19;46.39;98181.94;7370056;19;19934;-70
2023/06/12 07:35:33;;;;;;;;;;;;;;;24.44;44.90;98184.22;7374870;19;19918;-71
2023/06/12 07:38:02;;;;;;;;;;;;;;;24.51;46.30;98184.84;7368978;19;19923;-70
2023/06/12 07:40:29;;;;;;;;;;;;;;;24.53;44.52;98172.72;7374019;19;19922;-73
2023/06/12 07:42:57;;;;;;;;;;;;;;;24.81;44.25;98173.59;7371556;19;19926;-72
2023/06/12 07:45:24;;;;;;;;;;;;;;;24.75;43.48;98174.63;7371641;19;19931;-72
2023/06/12 07:47:54;;;;;;;;;;;;;;;24.80;42.50;98171.94;7369594;19;19922;-71
2023/06/12 07:50:24;;;;;;;;;;;;;;;25.18;43.03;98172.94;7369846;19;19926;-72
2023/06/12 07:52:51;;;;;;;;;;;;;;;25.17;42.12;98171.31;7370931;19;19925;-72
2023/06/12 07:55:19;;;;;;;;;;;;;;;25.34;42.70;98174.72;7374822;19;19936;-72
2023/06/12 07:57:50;;;;;;;;;;;;;;;25.59;41.36;98173.31;7371544;19;19919;-72
2023/06/12 08:00:17;;;;;;;;;;;;;;;25.66;39.94;98173.94;7372072;19;19919;-71
2023/06/12 08:02:54;;;;;;;;;;;;;;;25.78;42.75;98168.34;7374660;19;19930;-75
2023/06/12 08:05:25;;;;;;;;;;;;;;;25.65;39.05;98163.38;7374103;19;19926;-73
2023/06/12 08:07:54;;;;;;;;;;;;;;;25.89;39.46;98161.94;7373817;19;19922;-72
2023/06/12 08:10:21;;;;;;;;;;;;;;;25.99;37.92;98155.78;7368519;19;20275;-72
2023/06/12 08:12:48;;;;;;;;;;;;;;;25.87;39.55;98147.84;7371153;19;19930;-71
2023/06/12 08:15:16;;;;;;;;;;;;;;;26.17;38.60;98152.66;7369874;19;19919;-72
2023/06/12 08:17:43;;;;;;;;;;;;;;;26.30;42.37;98153.25;7373127;19;19918;-72
2023/06/12 08:20:11;;;;;;;;;;;;;;;26.35;39.58;98151.38;7366540;19;19923;-70
2023/06/12 08:22:38;;;;;;;;;;;;;;;26.21;38.33;98156.44;7373453;19;19978;-70
2023/06/12 08:25:06;;;;;;;;;;;;;;;26.12;37.12;98149.91;7368669;19;20247;-71
2023/06/12 08:27:34;;;;;;;;;;;;;;;26.20;37.14;98149.41;7373726;19;19925;-73
2023/06/12 08:30:01;;;;;;;;;;;;;;;26.16;40.20;98145.56;7370792;19;19915;-75
2023/06/12 08:32:30;;;;;;;;;;;;;;;26.18;35.10;98140.72;7374616;19;19937;-73
2023/06/12 08:34:58;;;;;;;;;;;;;;;26.38;37.44;98147.31;7370710;19;19995;-72
2023/06/12 08:37:25;;;;;;;;;;;;;;;26.70;36.06;98145.31;7368340;19;20344;-71
2023/06/12 08:39:52;;;;;;;;;;;;;;;27.00;35.40;98138.34;7368196;19;19922;-71
2023/06/12 08:42:20;;;;;;;;;;;;;;;26.96;33.81;98141.84;7374204;19;19923;-70
2023/06/12 08:44:46;;;;;;;;;;;;;;;27.12;35.13;98144.34;7374957;19;20348;-71
2023/06/12 08:47:14;;;;;;;;;;;;;;;27.35;32.31;98142.22;7373929;19;19922;-70
2023/06/12 08:49:40;;;;;;;;;;;;;;;27.33;33.55;98147.94;7373357;19;19919;-71
2023/06/12 08:52:07;;;;;;;;;;;;;;;27.56;33.93;98151.19;7368821;19;20375;-71
2023/06/12 08:54:34;;;;;;;;;;;;;;;27.17;34.02;98145.44;7374408;19;19930;-72
2023/06/12 08:57:01;;;;;;;;;;;;;;;27.46;36.05;98146.59;7372025;19;19927;-70
2023/06/12 08:59:28;;;;;;;;;;;;;;;27.74;35.64;98141.69;7381094;19;19943;-71
2023/06/12 09:01:55;;;;;;;;;;;;;;;27.70;36.45;98138.72;7381047;19;19971;-71
2023/06/12 09:04:48;;;;;;;;;;;;;;;27.75;34.14;98135.16;7382653;19;19927;-69
2023/06/12 09:07:19;;;;;;;;;;;;;;;27.05;32.17;98137.56;7381197;19;19915;-70
2023/06/12 09:09:46;;;;;;;;;;;;;;;27.74;33.06;98136.25;7380826;19;19934;-72
2023/06/12 09:12:13;;;;;;;;;;;;;;;27.03;31.37;98132.38;7374789;19;20619;-72
2023/06/12 09:14:41;;;;;;;;;;;;;;;26.91;31.66;98134.53;7379112;19;19930;-70
2023/06/12 09:17:07;;;;;;;;;;;;;;;27.48;31.69;98140.88;7379389;19;19910;-71
2023/06/12 09:19:36;;;;;;;;;;;;;;;27.90;30.38;98128.94;7379066;19;19923;-71
2023/06/12 09:22:03;;;;;;;;;;;;;;;27.61;30.25;98136.81;7379613;19;20388;-71
2023/06/12 09:24:30;;;;;;;;;;;;;;;27.34;34.46;98127.84;7379011;19;19934;-70
2023/06/12 09:26:57;;;;;;;;;;;;;;;28.01;31.81;98125.91;7380800;19;19922;-72
2023/06/12 09:29:30;;;;;;;;;;;;;;;28.44;28.49;98114.66;7376409;19;20845;-71
2023/06/12 09:32:03;;;;;;;;;;;;;;;28.20;32.29;98118.00;7380380;19;19918;-71
2023/06/12 09:34:30;;;;;;;;;;;;;;;28.47;28.69;98127.72;7384114;19;19998;-70
2023/06/12 09:36:58;;;;;;;;;;;;;;;28.58;31.14;98126.56;7377121;19;19923;-70
2023/06/12 09:39:26;;;;;;;;;;;;;;;29.02;30.40;98123.06;7375260;19;19925;-72
2023/06/12 09:41:53;;;;;;;;;;;;;;;28.43;29.00;98115.72;7383420;19;19923;-72
2023/06/12 09:44:22;;;;;;;;;;;;;;;28.52;29.23;98121.44;7377861;19;19982;-71
2023/06/12 09:46:52;;;;;;;;;;;;;;;29.00;30.11;98127.97;7380393;19;20002;-71
2023/06/12 09:49:20;;;;;;;;;;;;;;;29.02;29.08;98127.72;7375635;19;19942;-76
2023/06/12 09:51:49;;;;;;;;;;;;;;;28.71;32.95;98127.06;7380237;19;19919;-72
2023/06/12 09:54:16;;;;;;;;;;;;;;;29.23;30.60;98122.97;7377405;19;19933;-72
2023/06/12 09:56:44;;;;;;;;;;;;;;;29.07;28.05;98122.28;7375528;19;19922;-72
2023/06/12 09:59:16;;;;;;;;;;;;;;;28.99;28.18;98117.34;7375333;19;19921;-73
2023/06/12 10:01:47;;;;;;;;;;;;;;;29.27;28.90;98119.38;7380303;19;19928;-70
2023/06/12 10:04:15;;;;;;;;;;;;;;;28.96;28.45;98117.94;7375678;19;21979;-71
2023/06/12 10:06:42;;;;;;;;;;;;;;;28.86;27.00;98116.09;7379181;19;19922;-70
2023/06/12 10:09:09;;;;;;;;;;;;;;;28.49;29.40;98121.97;7375644;19;19923;-71
2023/06/12 10:11:38;;;;;;;;;;;;;;;28.81;31.04;98122.38;7373693;19;19948;-72
2023/06/12 10:14:05;;;;;;;;;;;;;;;28.84;29.49;98113.66;7374300;19;19947;-76
2023/06/12 10:16:33;;;;;;;;;;;;;;;28.62;30.88;98111.31;7380208;19;19933;-72
2023/06/12 10:19:01;;;;;;;;;;;;;;;27.90;31.24;98113.41;7375730;19;19930;-70
2023/06/12 10:21:27;;;;;;;;;;;;;;;28.07;30.27;98107.69;7373597;19;19940;-70
2023/06/12 10:23:54;;;;;;;;;;;;;;;28.34;28.81;98099.16;7375917;19;19934;-71
2023/06/12 10:26:22;;;;;;;;;;;;;;;28.15;29.69;98103.59;7374977;19;19927;-70
2023/06/12 10:28:49;;;;;;;;;;;;;;;28.12;31.70;98106.84;7376984;19;20352;-70
2023/06/12 10:31:18;;;;;;;;;;;;;;;28.11;29.99;98099.78;7373788;19;19923;-71
2023/06/12 10:33:58;;;;;;;;;;;;;;;28.35;30.58;98103.50;7375835;19;19971;-72
2023/06/12 10:36:25;;;;;;;;;;;;;;;28.04;29.64;98091.91;7376194;19;19923;-70
2023/06/12 10:39:03;;;;;;;;;;;;;;;27.96;29.97;98098.75;7379366;19;20609;-71
2023/06/12 10:41:31;;;;;;;;;;;;;;;27.76;28.99;98094.13;7376465;19;19919;-72
2023/06/12 10:43:58;;;;;;;;;;;;;;;27.51;29.96;98094.94;7376442;19;20057;-72
2023/06/12 10:46:43;;;;;;;;;;;;;;;27.38;28.35;98090.06;7373557;19;19923;-71
2023/06/12 10:49:10;;;;;;;;;;;;;;;27.76;27.91;98083.25;7374705;19;20506;-71
2023/06/12 10:51:40;;;;;;;;;;;;;;;27.82;29.40;98084.09;7379228;19;20273;-71
2023/06/12 10:54:13;;;;;;;;;;;;;;;27.83;32.11;98082.97;7376543;19;19986;-75
2023/06/12 10:56:58;;;;;;;;;;;;;;;27.53;30.95;98087.34;7376547;19;19950;-72
2023/06/12 10:59:30;;;;;;;;;;;;;;;27.65;32.76;98078.09;7374498;19;19990;-71
2023/06/12 11:01:57;;;;;;;;;;;;;;;27.74;32.91;98081.91;7378467;19;19990;-71
2023/06/12 11:04:26;;;;;;;;;;;;;;;27.97;32.55;98075.09;7373766;19;19922;-72
2023/06/12 11:06:53;;;;;;;;;;;;;;;27.99;30.82;98067.47;7374346;19;19926;-70
2023/06/12 11:09:19;;;;;;;;;;;;;;;28.08;28.94;98057.63;7373464;19;19927;-70
2023/06/12 11:11:49;;;;;;;;;;;;;;;27.90;31.09;98064.47;7376246;19;19923;-75
2023/06/12 11:14:16;;;;;;;;;;;;;;;27.92;30.38;98073.19;7373880;19;19923;-70
2023/06/12 11:16:45;;;;;;;;;;;;;;;27.79;31.65;98068.28;7377071;19;20276;-71
2023/06/12 11:19:12;;;;;;;;;;;;;;;27.64;28.48;98060.97;7375728;19;19926;-72
2023/06/12 11:21:39;;;;;;;;;;;;;;;27.76;27.92;98052.53;7371876;19;19968;-72
2023/06/12 11:24:06;;;;;;;;;;;;;;;27.64;30.05;98050.09;7375039;19;19923;-70
2023/06/12 11:26:33;;;;;;;;;;;;;;;27.58;30.28;98048.50;7378404;19;19933;-73
2023/06/12 11:29:15;;;;;;;;;;;;;;;27.54;28.06;98044.69;7375813;19;19935;-71
2023/06/12 11:31:50;;;;;;;;;;;;;;;27.17;29.73;98062.09;7374388;19;19919;-70
2023/06/12 11:34:17;;;;;;;;;;;;;;;27.14;28.29;98057.97;7371382;19;19918;-70
2023/06/12 11:36:44;;;;;;;;;;;;;;;27.47;30.01;98053.13;7376393;19;19938;-70
2023/06/12 11:39:17;;;;;;;;;;;;;;;27.69;29.24;98049.28;7372718;19;20363;-72
2023/06/12 11:41:48;;;;;;;;;;;;;;;27.37;30.39;98053.13;7376150;19;19926;-69
2023/06/12 11:44:15;;;;;;;;;;;;;;;27.54;31.09;98047.41;7372766;19;19930;-73
2023/06/12 11:46:42;;;;;;;;;;;;;;;27.60;30.92;98048.22;7372547;19;19925;-71
2023/06/12 11:49:09;;;;;;;;;;;;;;;27.58;29.90;98041.16;7370738;19;19952;-74
2023/06/12 11:51:39;;;;;;;;;;;;;;;27.72;29.23;98046.81;7372311;19;19929;-72
2023/06/12 11:54:07;;;;;;;;;;;;;;;27.91;27.16;98044.38;7374383;19;19918;-74
2023/06/12 11:56:33;;;;;;;;;;;;;;;27.91;27.50;98032.66;7370542;19;19928;-72
2023/06/12 11:59:03;;;;;;;;;;;;;;;27.94;27.32;98032.94;7376557;19;20619;-73
2023/06/12 12:01:32;;;;;;;;;;;;;;;27.93;27.39;98036.75;7371000;19;20028;-70
2023/06/12 12:03:59;;;;;;;;;;;;;;;28.00;31.97;98031.84;7372156;19;20387;-72
2023/06/12 12:06:27;;;;;;;;;;;;;;;27.85;32.85;98034.59;7369165;19;20236;-73
2023/06/12 12:08:54;;;;;;;;;;;;;;;28.06;27.97;98020.94;7373423;19;19925;-75
2023/06/12 12:11:21;;;;;;;;;;;;;;;27.93;28.77;98019.63;7368181;19;19935;-71
2023/06/12 12:13:51;;;;;;;;;;;;;;;28.11;28.04;98018.19;7373871;19;19926;-71
2023/06/12 12:16:23;;;;;;;;;;;;;;;28.01;30.37;98017.13;7369305;19;20976;-72
2023/06/12 12:18:51;;;;;;;;;;;;;;;27.89;28.96;98013.94;7371032;19;20671;-71
2023/06/12 12:21:18;;;;;;;;;;;;;;;27.55;29.74;98011.00;7368387;19;19919;-72
2023/06/12 12:23:45;;;;;;;;;;;;;;;27.81;27.39;98011.78;7371631;19;19930;-74
2023/06/12 12:26:12;;;;;;;;;;;;;;;27.72;27.70;98008.78;7370069;19;19935;-72
2023/06/12 12:28:41;;;;;;;;;;;;;;;27.73;26.54;98009.59;7375329;19;20285;-71
2023/06/12 12:31:08;;;;;;;;;;;;;;;27.82;26.23;98007.16;7368397;19;19927;-70
2023/06/12 12:33:35;;;;;;;;;;;;;;;27.87;26.78;98004.44;7378594;19;20348;-71
2023/06/12 12:36:02;;;;;;;;;;;;;;;27.87;28.35;98004.44;7380982;19;20349;-71
2023/06/12 12:38:29;;;;;;;;;;;;;;;27.80;29.75;97999.25;7377336;19;19927;-71
2023/06/12 12:40:56;;;;;;;;;;;;;;;27.82;28.12;97994.38;7374585;19;19930;-70
2023/06/12 12:43:22;;;;;;;;;;;;;;;28.07;27.64;97996.19;7375582;19;19922;-73
2023/06/12 12:45:49;;;;;;;;;;;;;;;27.61;28.01;97990.06;7382962;19;19933;-70
2023/06/12 12:48:16;;;;;;;;;;;;;;;27.66;27.95;97993.59;7376173;19;19922;-72
2023/06/12 12:50:43;;;;;;;;;;;;;;;27.91;25.75;97979.13;7379423;19;19946;-70
2023/06/12 12:53:30;;;;;;;;;;;;;;;27.85;26.49;97980.22;7377531;19;19911;-71
2023/06/12 12:55:57;;;;;;;;;;;;;;;27.56;27.91;97988.16;7379110;19;19929;-71
2023/06/12 12:58:24;;;;;;;;;;;;;;;27.49;27.34;97987.63;7377670;19;19919;-71
2023/06/12 13:00:51;;;;;;;;;;;;;;;27.43;29.28;97986.03;7379527;19;19915;-72
2023/06/12 13:03:18;;;;;;;;;;;;;;;27.22;27.27;97982.53;7377120;19;19922;-71
2023/06/12 13:05:45;;;;;;;;;;;;;;;27.31;30.01;97986.34;7381144;19;20002;-72
2023/06/12 13:08:13;;;;;;;;;;;;;;;27.41;33.37;97980.88;7375712;19;19926;-71
2023/06/12 13:10:39;;;;;;;;;;;;;;;27.48;29.03;97967.81;7381365;19;19927;-71
2023/06/12 13:13:06;;;;;;;;;;;;;;;27.29;30.49;97977.63;7384034;19;19923;-71
2023/06/12 13:15:32;;;;;;;;;;;;;;;27.32;31.02;97977.09;7377370;19;19919;-70
2023/06/12 13:17:59;;;;;;;;;;;;;;;27.44;29.24;97974.09;7383271;19;20303;-71
2023/06/12 13:20:26;;;;;;;;;;;;;;;27.58;28.88;97966.97;7377347;19;20679;-72
2023/06/12 13:22:53;;;;;;;;;;;;;;;27.44;25.71;97974.91;7381905;19;20482;-71
2023/06/12 13:25:20;;;;;;;;;;;;;;;27.61;27.41;97965.59;7377904;19;20340;-71
2023/06/12 13:27:47;;;;;;;;;;;;;;;27.74;27.96;97960.38;7382302;19;19926;-72
2023/06/12 13:30:13;;;;;;;;;;;;;;;27.67;28.16;97959.06;7375765;19;19946;-71
2023/06/12 13:32:40;;;;;;;;;;;;;;;27.55;26.91;97970.25;7380452;19;19927;-70
2023/06/12 13:35:08;;;;;;;;;;;;;;;27.64;25.26;97967.78;7380637;19;19966;-71
2023/06/12 13:37:34;;;;;;;;;;;;;;;27.79;27.08;97963.09;7377846;19;19922;-70
2023/06/12 13:40:01;;;;;;;;;;;;;;;27.79;28.77;97962.28;7381643;19;19927;-71
2023/06/12 13:42:28;;;;;;;;;;;;;;;27.65;28.36;97970.22;7377463;19;20241;-71
2023/06/12 13:44:54;;;;;;;;;;;;;;;27.73;29.52;97956.06;7381295;19;19933;-71
2023/06/12 13:47:21;;;;;;;;;;;;;;;27.70;25.14;97958.50;7374891;19;19993;-72
2023/06/12 13:49:48;;;;;;;;;;;;;;;27.64;29.41;97962.34;7380018;19;20293;-74
2023/06/12 13:52:15;;;;;;;;;;;;;;;27.81;24.94;97957.44;7379163;19;19942;-70
2023/06/12 13:54:41;;;;;;;;;;;;;;;28.08;24.70;97956.22;7380954;19;19985;-71
2023/06/12 13:57:08;;;;;;;;;;;;;;;28.34;26.22;97959.59;7378784;19;19918;-74
2023/06/12 13:59:35;;;;;;;;;;;;;;;28.17;27.76;97951.78;7376668;19;19940;-71
2023/06/12 14:02:02;;;;;;;;;;;;;;;28.17;27.95;97954.53;7379656;19;19922;-74
2023/06/12 14:04:29;;;;;;;;;;;;;;;28.34;27.04;97957.69;7374220;19;19930;-71
2023/06/12 14:06:58;;;;;;;;;;;;;;;28.29;27.19;97955.00;7376984;19;19929;-71
2023/06/12 14:09:25;;;;;;;;;;;;;;;28.40;26.25;97942.94;7375507;19;19927;-71
2023/06/12 14:11:53;;;;;;;;;;;;;;;28.51;29.04;97956.53;7379297;19;19914;-72
2023/06/12 14:14:20;;;;;;;;;;;;;;;28.36;27.80;97947.34;7376126;19;19988;-70
2023/06/12 14:16:47;;;;;;;;;;;;;;;28.40;28.02;97951.13;7380686;19;19989;-70
2023/06/12 14:19:14;;;;;;;;;;;;;;;28.35;27.66;97951.16;7377688;19;19937;-69
2023/06/12 14:21:41;;;;;;;;;;;;;;;28.27;25.89;97945.50;7371521;19;19938;-70
2023/06/12 14:24:08;;;;;;;;;;;;;;;28.35;25.02;97953.88;7368505;19;19936;-73
2023/06/12 14:26:53;;;;;;;;;;;;;;;28.52;23.02;97944.56;7373262;19;20293;-70
2023/06/12 14:29:22;;;;;;;;;;;;;;;28.53;27.61;97943.47;7369522;19;19919;-74
2023/06/12 14:31:49;;;;;;;;;;;;;;;28.61;23.05;97945.56;7379430;19;19919;-73
2023/06/12 14:34:16;;;;;;;;;;;;;;;28.86;22.90;97931.75;7371349;19;19923;-73
2023/06/12 14:36:42;;;;;;;;;;;;;;;28.79;28.57;97928.56;7373671;19;19919;-72
2023/06/12 14:39:10;;;;;;;;;;;;;;;28.83;25.03;97917.88;7376071;19;20649;-71
2023/06/12 14:41:37;;;;;;;;;;;;;;;28.68;27.26;97927.00;7364447;19;19978;-71
2023/06/12 14:44:03;;;;;;;;;;;;;;;29.02;25.75;97921.53;7370813;19;19922;-72
2023/06/12 14:46:30;;;;;;;;;;;;;;;29.18;25.48;97914.06;7369028;19;19929;-72
2023/06/12 14:48:57;;;;;;;;;;;;;;;29.05;27.76;97923.72;7374806;19;20272;-71
2023/06/12 14:51:23;;;;;;;;;;;;;;;28.79;24.55;97908.69;7365871;19;19915;-71
2023/06/12 14:53:50;;;;;;;;;;;;;;;28.74;26.55;97904.09;7374871;19;19929;-72
2023/06/12 14:56:16;;;;;;;;;;;;;;;28.51;26.56;97921.94;7367452;19;19950;-72
2023/06/12 14:58:43;;;;;;;;;;;;;;;28.66;24.24;97915.59;7376153;19;19921;-71
2023/06/12 15:01:11;;;;;;;;;;;;;;;28.96;24.06;97908.25;7374958;19;19978;-74
2023/06/12 15:03:38;;;;;;;;;;;;;;;28.92;23.58;97904.50;7370406;19;19919;-70
2023/06/12 15:06:05;;;;;;;;;;;;;;;29.22;27.81;97904.19;7375589;19;19911;-70
2023/06/12 15:08:32;;;;;;;;;;;;;;;29.36;30.18;97898.91;7373819;19;19926;-71
2023/06/12 15:10:59;;;;;;;;;;;;;;;29.51;25.77;97906.88;7374481;19;19933;-71
2023/06/12 15:13:25;;;;;;;;;;;;;;;29.60;26.69;97908.97;7369949;19;19915;-71
2023/06/12 15:15:52;;;;;;;;;;;;;;;29.54;25.14;97900.03;7377703;19;19995;-70
2023/06/12 15:18:19;;;;;;;;;;;;;;;29.80;26.14;97903.28;7372631;19;19926;-71
2023/06/12 15:21:06;;;;;;;;;;;;;;;29.63;25.89;97898.28;7372905;19;19982;-71
2023/06/12 15:23:32;;;;;;;;;;;;;;;29.66;25.10;97900.47;7367961;19;20359;-70
2023/06/12 15:25:59;;;;;;;;;;;;;;;29.80;24.70;97897.03;7371055;19;19922;-71
2023/06/12 15:28:26;;;;;;;;;;;;;;;29.56;24.66;97895.09;7367926;19;19923;-72
2023/06/12 15:30:52;;;;;;;;;;;;;;;29.35;23.69;97893.72;7370595;19;19923;-71
2023/06/12 15:33:19;;;;;;;;;;;;;;;29.10;23.06;97882.00;7366956;19;20367;-72
2023/06/12 15:35:46;;;;;;;;;;;;;;;29.40;22.58;97882.75;7375461;19;19919;-71
2023/06/12 15:38:32;;;;;;;;;;;;;;;29.34;23.19;97887.47;7366120;19;19938;-72
2023/06/12 15:40:58;;;;;;;;;;;;;;;29.67;26.10;97885.72;7372866;19;20014;-71
2023/06/12 15:43:25;;;;;;;;;;;;;;;29.91;27.25;97877.53;7369980;19;19933;-70
2023/06/12 15:45:55;;;;;;;;;;;;;;;30.81;25.90;97872.88;7374961;19;19970;-71
2023/06/12 15:48:22;;;;;;;;;;;;;;;31.70;25.32;97873.66;7368719;19;19923;-71
2023/06/12 15:50:49;;;;;;;;;;;;;;;31.97;21.60;97874.78;7371606;19;19911;-71
2023/06/12 15:53:16;;;;;;;;;;;;;;;32.76;21.03;97872.34;7382849;19;19937;-72
2023/06/12 15:55:43;;;;;;;;;;;;;;;32.95;22.36;97865.81;7369054;19;20390;-71
2023/06/12 15:58:10;;;;;;;;;;;;;;;32.98;22.39;97868.75;7375176;19;19923;-71
2023/06/12 16:00:36;;;;;;;;;;;;;;;31.93;23.05;97872.63;7366503;19;19922;-70
2023/06/12 16:03:03;;;;;;;;;;;;;;;30.48;23.17;97877.50;7375166;19;19932;-69
2023/06/12 16:05:30;;;;;;;;;;;;;;;29.65;22.29;97874.31;7367595;19;19918;-71
2023/06/12 16:07:57;;;;;;;;;;;;;;;28.78;23.80;97874.38;7370074;19;19998;-70
2023/06/12 16:10:24;;;;;;;;;;;;;;;28.39;24.77;97870.59;7368730;19;20390;-70
2023/06/12 16:12:51;;;;;;;;;;;;;;;27.99;24.66;97869.00;7374048;19;19926;-72
2023/06/12 16:15:18;;;;;;;;;;;;;;;27.94;27.78;97869.00;7374126;19;19930;-71
2023/06/12 16:17:48;;;;;;;;;;;;;;;27.68;27.01;97865.59;7365009;19;20196;-70
2023/06/12 16:20:16;;;;;;;;;;;;;;;27.72;27.42;97872.06;7373864;19;19943;-70
2023/06/12 16:22:43;;;;;;;;;;;;;;;27.41;25.48;97866.78;7367534;19;19919;-69
2023/06/12 16:25:09;;;;;;;;;;;;;;;27.49;28.30;97862.66;7376055;19;19923;-71
2023/06/12 16:27:36;;;;;;;;;;;;;;;27.32;27.52;97866.53;7370073;19;19951;-70
2023/06/12 16:30:03;;;;;;;;;;;;;;;27.39;26.98;97862.72;7375087;19;19914;-70
2023/06/12 16:32:30;;;;;;;;;;;;;;;27.53;26.17;97850.97;7371928;19;19919;-71
2023/06/12 16:34:57;;;;;;;;;;;;;;;27.44;27.02;97852.66;7374298;19;19930;-71
2023/06/12 16:37:25;;;;;;;;;;;;;;;27.32;25.60;97855.66;7370063;19;19921;-70
2023/06/12 16:40:11;;;;;;;;;;;;;;;27.55;25.93;97856.13;7374039;19;19933;-70
2023/06/12 16:42:39;;;;;;;;;;;;;;;27.38;25.60;97863.78;7367667;19;19922;-72
2023/06/12 16:45:06;;;;;;;;;;;;;;;27.29;27.01;97861.66;7378037;19;19914;-70
2023/06/12 16:47:33;;;;;;;;;;;;;;;27.22;26.46;97852.19;7364710;19;19914;-70
2023/06/12 16:49:59;;;;;;;;;;;;;;;27.09;26.65;97858.97;7376310;19;20363;-71
2023/06/12 16:52:26;;;;;;;;;;;;;;;26.57;27.50;97858.25;7369524;19;19918;-70
2023/06/12 16:54:53;;;;;;;;;;;;;;;26.47;27.85;97858.22;7373960;19;19923;-70
2023/06/12 16:57:20;;;;;;;;;;;;;;;26.38;33.93;97860.63;7370357;19;19942;-68
2023/06/12 16:59:47;;;;;;;;;;;;;;;26.22;27.15;97856.28;7367341;19;19935;-69
2023/06/12 17:02:14;;;;;;;;;;;;;;;26.05;28.60;97857.34;7373191;19;19926;-71
2023/06/12 17:04:41;;;;;;;;;;;;;;;25.92;29.41;97857.88;7372435;19;19915;-69
2023/06/12 17:07:07;;;;;;;;;;;;;;;26.09;28.34;97863.03;7371170;19;20381;-71
2023/06/12 17:09:34;;;;;;;;;;;;;;;26.22;27.10;97851.69;7368696;19;19933;-71
2023/06/12 17:12:01;;;;;;;;;;;;;;;26.17;29.59;97853.56;7374452;19;19915;-70
2023/06/12 17:14:28;;;;;;;;;;;;;;;26.20;28.87;97864.72;7372598;19;19926;-73
2023/06/12 17:16:55;;;;;;;;;;;;;;;26.06;26.37;97864.41;7372486;19;19923;-71
2023/06/12 17:19:25;;;;;;;;;;;;;;;25.96;29.54;97861.69;7375528;19;19926;-72
2023/06/12 17:21:51;;;;;;;;;;;;;;;25.96;29.42;97864.41;7382087;19;19917;-71
2023/06/12 17:24:23;;;;;;;;;;;;;;;25.92;30.05;97863.28;7379806;19;19914;-72
2023/06/12 17:26:50;;;;;;;;;;;;;;;25.86;30.75;97858.13;7378634;19;19922;-70
2023/06/12 17:29:17;;;;;;;;;;;;;;;25.56;26.86;97870.47;7383615;19;19974;-71
2023/06/12 17:31:44;;;;;;;;;;;;;;;25.58;29.05;97868.31;7376645;19;19923;-73
2023/06/12 17:34:10;;;;;;;;;;;;;;;25.63;27.77;97866.44;7381843;19;20576;-70
2023/06/12 17:36:39;;;;;;;;;;;;;;;25.39;26.52;97866.06;7376301;19;19923;-69
2023/06/12 17:39:07;;;;;;;;;;;;;;;25.47;26.53;97869.38;7381035;19;19998;-71
2023/06/12 17:41:36;;;;;;;;;;;;;;;25.37;28.67;97862.81;7372234;19;19914;-72
2023/06/12 17:44:03;;;;;;;;;;;;;;;25.33;28.90;97863.59;7379261;19;20383;-69
2023/06/12 17:46:30;;;;;;;;;;;;;;;25.37;27.01;97865.50;7376759;19;19975;-71
2023/06/12 17:48:57;;;;;;;;;;;;;;;25.30;27.53;97866.84;7381105;19;19934;-69
2023/06/12 17:51:24;;;;;;;;;;;;;;;25.25;28.58;97859.53;7375958;19;19934;-69
2023/06/12 17:53:52;;;;;;;;;;;;;;;25.28;27.86;97864.41;7380580;19;19918;-72